sensor_id;sensor_type;location;lat;lon;timestamp;P1;durP1;ratioP1;P2;durP2;ratioP2
57311;SDS011;43154;50.966;18.316;2023-05-07T00:00:54;13.20;;;6.30;;
57311;SDS011;43154;50.966;18.316;2023-05-07T00:03:46;12.60;;;5.40;;
57311;SDS011;43154;50.966;18.316;2023-05-07T00:16:35;10.30;;;4.10;;
57311;SDS011;43154;50.966;18.316;2023-05-07T00:19:34;12.80;;;4.40;;
57311;SDS011;43154;50.966;18.316;2023-05-07T00:26:17;11.80;;;4.80;;
57311;SDS011;43154;50.966;18.316;2023-05-07T00:29:49;11.00;;;5.00;;
57311;SDS011;43154;50.966;18.316;2023-05-07T00:36:09;11.40;;;4.70;;
57311;SDS011;43154;50.966;18.316;2023-05-07T00:39:42;11.60;;;5.20;;
57311;SDS011;43154;50.966;18.316;2023-05-07T00:42:39;11.10;;;5.20;;
57311;SDS011;43154;50.966;18.316;2023-05-07T00:55:45;15.00;;;5.70;;
57311;SDS011;43154;50.966;18.316;2023-05-07T00:59:07;11.70;;;5.50;;
57311;SDS011;43154;50.966;18.316;2023-05-07T01:09:00;10.50;;;4.70;;
57311;SDS011;43154;50.966;18.316;2023-05-07T01:12:39;12.90;;;5.60;;
57311;SDS011;43154;50.966;18.316;2023-05-07T01:15:47;11.10;;;4.70;;
57311;SDS011;43154;50.966;18.316;2023-05-07T01:25:11;11.00;;;4.70;;
57311;SDS011;43154;50.966;18.316;2023-05-07T01:28:26;10.60;;;3.90;;
57311;SDS011;43154;50.966;18.316;2023-05-07T01:31:45;11.40;;;4.80;;
57311;SDS011;43154;50.966;18.316;2023-05-07T01:38:17;11.40;;;4.70;;
57311;SDS011;43154;50.966;18.316;2023-05-07T01:41:07;10.70;;;4.60;;
57311;SDS011;43154;50.966;18.316;2023-05-07T01:50:54;11.80;;;4.90;;
57311;SDS011;43154;50.966;18.316;2023-05-07T01:53:20;11.70;;;5.10;;
57311;SDS011;43154;50.966;18.316;2023-05-07T01:55:46;12.30;;;5.40;;
57311;SDS011;43154;50.966;18.316;2023-05-07T01:58:12;12.10;;;4.90;;
57311;SDS011;43154;50.966;18.316;2023-05-07T02:00:39;11.80;;;5.30;;
57311;SDS011;43154;50.966;18.316;2023-05-07T02:03:05;12.30;;;5.50;;
57311;SDS011;43154;50.966;18.316;2023-05-07T02:05:31;13.70;;;5.70;;
57311;SDS011;43154;50.966;18.316;2023-05-07T02:07:57;12.10;;;5.50;;
57311;SDS011;43154;50.966;18.316;2023-05-07T02:10:23;12.20;;;5.60;;
57311;SDS011;43154;50.966;18.316;2023-05-07T02:12:49;12.10;;;5.00;;
57311;SDS011;43154;50.966;18.316;2023-05-07T02:15:14;14.50;;;5.40;;
57311;SDS011;43154;50.966;18.316;2023-05-07T02:20:25;12.60;;;5.40;;
57311;SDS011;43154;50.966;18.316;2023-05-07T02:22:51;12.20;;;5.30;;
57311;SDS011;43154;50.966;18.316;2023-05-07T02:25:18;12.50;;;5.60;;
57311;SDS011;43154;50.966;18.316;2023-05-07T02:27:44;11.50;;;5.20;;
57311;SDS011;43154;50.966;18.316;2023-05-07T02:30:10;11.60;;;5.00;;
57311;SDS011;43154;50.966;18.316;2023-05-07T02:32:36;12.90;;;5.10;;
57311;SDS011;43154;50.966;18.316;2023-05-07T02:35:02;13.70;;;5.50;;
57311;SDS011;43154;50.966;18.316;2023-05-07T02:37:28;12.70;;;5.70;;
57311;SDS011;43154;50.966;18.316;2023-05-07T02:39:55;11.90;;;5.30;;
57311;SDS011;43154;50.966;18.316;2023-05-07T02:42:20;13.20;;;5.70;;
57311;SDS011;43154;50.966;18.316;2023-05-07T02:44:46;12.80;;;5.40;;
57311;SDS011;43154;50.966;18.316;2023-05-07T02:47:13;12.00;;;5.10;;
57311;SDS011;43154;50.966;18.316;2023-05-07T02:49:40;10.70;;;4.60;;
57311;SDS011;43154;50.966;18.316;2023-05-07T02:52:06;12.60;;;5.00;;
57311;SDS011;43154;50.966;18.316;2023-05-07T02:54:32;10.70;;;4.70;;
57311;SDS011;43154;50.966;18.316;2023-05-07T02:56:58;10.50;;;4.60;;
57311;SDS011;43154;50.966;18.316;2023-05-07T02:59:24;10.90;;;4.50;;
57311;SDS011;43154;50.966;18.316;2023-05-07T03:01:51;10.50;;;4.60;;
57311;SDS011;43154;50.966;18.316;2023-05-07T03:04:17;11.60;;;4.30;;
57311;SDS011;43154;50.966;18.316;2023-05-07T03:06:43;10.40;;;4.50;;
57311;SDS011;43154;50.966;18.316;2023-05-07T03:09:09;9.70;;;4.00;;
57311;SDS011;43154;50.966;18.316;2023-05-07T03:11:35;10.60;;;4.10;;
57311;SDS011;43154;50.966;18.316;2023-05-07T03:14:01;10.40;;;3.90;;
57311;SDS011;43154;50.966;18.316;2023-05-07T03:16:27;10.50;;;3.90;;
57311;SDS011;43154;50.966;18.316;2023-05-07T03:18:53;9.50;;;3.60;;
57311;SDS011;43154;50.966;18.316;2023-05-07T03:21:19;11.30;;;4.80;;
57311;SDS011;43154;50.966;18.316;2023-05-07T03:23:45;9.60;;;3.40;;
57311;SDS011;43154;50.966;18.316;2023-05-07T03:26:13;9.30;;;3.60;;
57311;SDS011;43154;50.966;18.316;2023-05-07T03:28:39;9.40;;;3.60;;
57311;SDS011;43154;50.966;18.316;2023-05-07T03:31:05;10.90;;;3.50;;
57311;SDS011;43154;50.966;18.316;2023-05-07T03:33:34;8.80;;;3.30;;
57311;SDS011;43154;50.966;18.316;2023-05-07T03:36:00;9.10;;;2.70;;
57311;SDS011;43154;50.966;18.316;2023-05-07T03:38:27;10.00;;;3.00;;
57311;SDS011;43154;50.966;18.316;2023-05-07T03:40:53;8.70;;;2.70;;
57311;SDS011;43154;50.966;18.316;2023-05-07T03:43:18;9.00;;;3.00;;
57311;SDS011;43154;50.966;18.316;2023-05-07T03:45:44;9.90;;;2.80;;
57311;SDS011;43154;50.966;18.316;2023-05-07T03:48:10;8.20;;;2.60;;
57311;SDS011;43154;50.966;18.316;2023-05-07T03:50:37;8.80;;;2.80;;
57311;SDS011;43154;50.966;18.316;2023-05-07T03:53:04;8.50;;;2.70;;
57311;SDS011;43154;50.966;18.316;2023-05-07T03:55:30;8.30;;;2.70;;
57311;SDS011;43154;50.966;18.316;2023-05-07T03:57:56;8.60;;;2.70;;
57311;SDS011;43154;50.966;18.316;2023-05-07T04:00:22;9.60;;;3.00;;
57311;SDS011;43154;50.966;18.316;2023-05-07T04:02:48;7.80;;;2.70;;
57311;SDS011;43154;50.966;18.316;2023-05-07T04:05:17;8.50;;;2.60;;
57311;SDS011;43154;50.966;18.316;2023-05-07T04:07:43;8.30;;;2.90;;
57311;SDS011;43154;50.966;18.316;2023-05-07T04:10:09;9.10;;;2.80;;
57311;SDS011;43154;50.966;18.316;2023-05-07T04:12:35;8.70;;;2.90;;
57311;SDS011;43154;50.966;18.316;2023-05-07T04:15:01;9.70;;;3.00;;
57311;SDS011;43154;50.966;18.316;2023-05-07T04:17:27;8.70;;;3.30;;
57311;SDS011;43154;50.966;18.316;2023-05-07T04:19:53;9.30;;;3.70;;
57311;SDS011;43154;50.966;18.316;2023-05-07T04:22:19;10.40;;;3.80;;
57311;SDS011;43154;50.966;18.316;2023-05-07T04:24:44;9.40;;;3.80;;
57311;SDS011;43154;50.966;18.316;2023-05-07T04:27:11;10.30;;;3.70;;
57311;SDS011;43154;50.966;18.316;2023-05-07T04:29:37;12.40;;;5.60;;
57311;SDS011;43154;50.966;18.316;2023-05-07T04:32:08;12.80;;;4.60;;
57311;SDS011;43154;50.966;18.316;2023-05-07T04:34:34;10.10;;;4.30;;
57311;SDS011;43154;50.966;18.316;2023-05-07T04:37:00;9.50;;;3.80;;
57311;SDS011;43154;50.966;18.316;2023-05-07T04:39:27;10.70;;;4.40;;
57311;SDS011;43154;50.966;18.316;2023-05-07T04:41:52;10.20;;;4.50;;
57311;SDS011;43154;50.966;18.316;2023-05-07T04:44:18;10.20;;;4.30;;
57311;SDS011;43154;50.966;18.316;2023-05-07T04:46:44;11.60;;;4.40;;
57311;SDS011;43154;50.966;18.316;2023-05-07T04:49:10;9.90;;;4.20;;
57311;SDS011;43154;50.966;18.316;2023-05-07T04:51:36;12.30;;;4.20;;
57311;SDS011;43154;50.966;18.316;2023-05-07T04:54:03;11.00;;;4.40;;
57311;SDS011;43154;50.966;18.316;2023-05-07T04:56:29;12.00;;;5.30;;
57311;SDS011;43154;50.966;18.316;2023-05-07T04:58:55;14.20;;;6.00;;
57311;SDS011;43154;50.966;18.316;2023-05-07T05:01:21;12.80;;;5.70;;
57311;SDS011;43154;50.966;18.316;2023-05-07T05:03:47;12.60;;;5.20;;
57311;SDS011;43154;50.966;18.316;2023-05-07T05:06:13;11.20;;;5.40;;
57311;SDS011;43154;50.966;18.316;2023-05-07T05:08:39;11.00;;;4.90;;
57311;SDS011;43154;50.966;18.316;2023-05-07T05:11:05;11.20;;;5.00;;
57311;SDS011;43154;50.966;18.316;2023-05-07T05:13:31;12.70;;;4.40;;
57311;SDS011;43154;50.966;18.316;2023-05-07T05:15:57;11.50;;;5.00;;
57311;SDS011;43154;50.966;18.316;2023-05-07T05:18:23;12.70;;;5.70;;
57311;SDS011;43154;50.966;18.316;2023-05-07T05:20:49;13.60;;;5.70;;
57311;SDS011;43154;50.966;18.316;2023-05-07T05:23:17;12.30;;;6.10;;
57311;SDS011;43154;50.966;18.316;2023-05-07T05:25:42;12.70;;;5.10;;
57311;SDS011;43154;50.966;18.316;2023-05-07T05:28:08;11.80;;;5.20;;
57311;SDS011;43154;50.966;18.316;2023-05-07T05:30:34;11.20;;;4.60;;
57311;SDS011;43154;50.966;18.316;2023-05-07T05:33:00;11.20;;;4.90;;
57311;SDS011;43154;50.966;18.316;2023-05-07T05:35:26;10.90;;;4.60;;
57311;SDS011;43154;50.966;18.316;2023-05-07T05:37:52;9.80;;;3.80;;
57311;SDS011;43154;50.966;18.316;2023-05-07T05:40:18;10.80;;;4.20;;
57311;SDS011;43154;50.966;18.316;2023-05-07T05:42:45;10.40;;;4.60;;
57311;SDS011;43154;50.966;18.316;2023-05-07T05:45:11;10.10;;;4.00;;
57311;SDS011;43154;50.966;18.316;2023-05-07T05:47:37;12.30;;;4.20;;
57311;SDS011;43154;50.966;18.316;2023-05-07T05:50:05;10.90;;;4.30;;
57311;SDS011;43154;50.966;18.316;2023-05-07T05:52:32;11.60;;;4.10;;
57311;SDS011;43154;50.966;18.316;2023-05-07T05:55:01;10.00;;;3.90;;
57311;SDS011;43154;50.966;18.316;2023-05-07T05:57:27;10.80;;;4.30;;
57311;SDS011;43154;50.966;18.316;2023-05-07T05:59:53;11.10;;;4.50;;
57311;SDS011;43154;50.966;18.316;2023-05-07T06:02:19;10.40;;;4.60;;
57311;SDS011;43154;50.966;18.316;2023-05-07T06:04:46;10.50;;;4.20;;
57311;SDS011;43154;50.966;18.316;2023-05-07T06:07:12;10.90;;;4.50;;
57311;SDS011;43154;50.966;18.316;2023-05-07T06:09:38;11.30;;;4.40;;
57311;SDS011;43154;50.966;18.316;2023-05-07T06:12:04;9.80;;;3.70;;
57311;SDS011;43154;50.966;18.316;2023-05-07T06:14:30;11.00;;;3.90;;
57311;SDS011;43154;50.966;18.316;2023-05-07T06:16:56;10.30;;;4.00;;
57311;SDS011;43154;50.966;18.316;2023-05-07T06:19:22;10.40;;;4.20;;
57311;SDS011;43154;50.966;18.316;2023-05-07T06:21:49;11.30;;;4.40;;
57311;SDS011;43154;50.966;18.316;2023-05-07T06:24:15;13.70;;;5.80;;
57311;SDS011;43154;50.966;18.316;2023-05-07T06:26:41;12.80;;;5.50;;
57311;SDS011;43154;50.966;18.316;2023-05-07T06:29:07;13.90;;;5.90;;
57311;SDS011;43154;50.966;18.316;2023-05-07T06:31:33;14.80;;;6.30;;
57311;SDS011;43154;50.966;18.316;2023-05-07T06:34:00;14.30;;;6.90;;
57311;SDS011;43154;50.966;18.316;2023-05-07T06:36:27;12.90;;;5.90;;
57311;SDS011;43154;50.966;18.316;2023-05-07T06:38:54;11.60;;;5.50;;
57311;SDS011;43154;50.966;18.316;2023-05-07T06:41:20;14.00;;;6.00;;
57311;SDS011;43154;50.966;18.316;2023-05-07T06:43:46;12.00;;;4.80;;
57311;SDS011;43154;50.966;18.316;2023-05-07T06:46:12;11.00;;;4.60;;
57311;SDS011;43154;50.966;18.316;2023-05-07T06:48:38;11.20;;;4.60;;
57311;SDS011;43154;50.966;18.316;2023-05-07T06:51:04;11.10;;;4.70;;
57311;SDS011;43154;50.966;18.316;2023-05-07T06:53:30;11.10;;;3.90;;
57311;SDS011;43154;50.966;18.316;2023-05-07T06:55:57;11.00;;;4.50;;
57311;SDS011;43154;50.966;18.316;2023-05-07T06:58:23;9.50;;;3.90;;
57311;SDS011;43154;50.966;18.316;2023-05-07T07:00:49;11.60;;;4.20;;
57311;SDS011;43154;50.966;18.316;2023-05-07T07:03:17;10.50;;;4.40;;
57311;SDS011;43154;50.966;18.316;2023-05-07T07:05:43;10.50;;;4.50;;
57311;SDS011;43154;50.966;18.316;2023-05-07T07:08:10;12.90;;;5.30;;
57311;SDS011;43154;50.966;18.316;2023-05-07T07:10:36;11.00;;;4.90;;
57311;SDS011;43154;50.966;18.316;2023-05-07T07:13:04;11.60;;;4.90;;
57311;SDS011;43154;50.966;18.316;2023-05-07T07:15:33;11.50;;;5.10;;
57311;SDS011;43154;50.966;18.316;2023-05-07T07:17:59;11.60;;;4.80;;
57311;SDS011;43154;50.966;18.316;2023-05-07T07:20:25;10.80;;;4.30;;
57311;SDS011;43154;50.966;18.316;2023-05-07T07:22:51;11.20;;;4.50;;
57311;SDS011;43154;50.966;18.316;2023-05-07T07:25:17;12.90;;;6.00;;
57311;SDS011;43154;50.966;18.316;2023-05-07T07:27:43;12.30;;;5.40;;
57311;SDS011;43154;50.966;18.316;2023-05-07T07:30:10;10.50;;;4.80;;
57311;SDS011;43154;50.966;18.316;2023-05-07T07:32:37;13.80;;;6.30;;
57311;SDS011;43154;50.966;18.316;2023-05-07T07:35:03;13.60;;;6.40;;
57311;SDS011;43154;50.966;18.316;2023-05-07T07:37:30;10.50;;;4.60;;
57311;SDS011;43154;50.966;18.316;2023-05-07T07:39:56;12.80;;;5.90;;
57311;SDS011;43154;50.966;18.316;2023-05-07T07:42:22;12.60;;;6.00;;
57311;SDS011;43154;50.966;18.316;2023-05-07T07:44:48;13.10;;;6.40;;
57311;SDS011;43154;50.966;18.316;2023-05-07T07:47:14;12.90;;;6.40;;
57311;SDS011;43154;50.966;18.316;2023-05-07T07:49:40;14.30;;;7.20;;
57311;SDS011;43154;50.966;18.316;2023-05-07T07:52:06;22.60;;;10.50;;
57311;SDS011;43154;50.966;18.316;2023-05-07T07:54:32;15.60;;;6.60;;
57311;SDS011;43154;50.966;18.316;2023-05-07T07:56:58;13.50;;;7.30;;
57311;SDS011;43154;50.966;18.316;2023-05-07T07:59:24;12.70;;;6.70;;
57311;SDS011;43154;50.966;18.316;2023-05-07T08:01:50;12.00;;;5.80;;
57311;SDS011;43154;50.966;18.316;2023-05-07T08:04:17;13.10;;;6.10;;
57311;SDS011;43154;50.966;18.316;2023-05-07T08:06:43;14.10;;;7.00;;
57311;SDS011;43154;50.966;18.316;2023-05-07T08:09:09;13.60;;;7.30;;
57311;SDS011;43154;50.966;18.316;2023-05-07T08:11:35;13.00;;;6.90;;
57311;SDS011;43154;50.966;18.316;2023-05-07T08:14:00;13.30;;;6.90;;
57311;SDS011;43154;50.966;18.316;2023-05-07T08:16:26;13.50;;;7.00;;
57311;SDS011;43154;50.966;18.316;2023-05-07T08:18:53;13.20;;;6.20;;
57311;SDS011;43154;50.966;18.316;2023-05-07T08:21:19;13.50;;;6.90;;
57311;SDS011;43154;50.966;18.316;2023-05-07T08:23:51;12.90;;;6.20;;
57311;SDS011;43154;50.966;18.316;2023-05-07T08:26:20;12.90;;;7.00;;
57311;SDS011;43154;50.966;18.316;2023-05-07T08:28:46;13.00;;;6.70;;
57311;SDS011;43154;50.966;18.316;2023-05-07T08:31:15;12.30;;;5.80;;
57311;SDS011;43154;50.966;18.316;2023-05-07T08:33:41;14.60;;;7.70;;
57311;SDS011;43154;50.966;18.316;2023-05-07T08:36:10;14.90;;;7.00;;
57311;SDS011;43154;50.966;18.316;2023-05-07T08:38:36;14.10;;;6.50;;
57311;SDS011;43154;50.966;18.316;2023-05-07T08:41:02;12.30;;;6.40;;
57311;SDS011;43154;50.966;18.316;2023-05-07T08:43:28;11.90;;;6.00;;
57311;SDS011;43154;50.966;18.316;2023-05-07T08:45:54;13.70;;;6.70;;
57311;SDS011;43154;50.966;18.316;2023-05-07T08:48:21;13.90;;;7.10;;
57311;SDS011;43154;50.966;18.316;2023-05-07T09:24:00;12.00;;;5.70;;
57311;SDS011;43154;50.966;18.316;2023-05-07T09:29:29;10.10;;;4.50;;
57311;SDS011;43154;50.966;18.316;2023-05-07T09:32:08;10.00;;;4.10;;
57311;SDS011;43154;50.966;18.316;2023-05-07T09:35:02;10.70;;;4.20;;
57311;SDS011;43154;50.966;18.316;2023-05-07T09:37:37;10.20;;;3.90;;
57311;SDS011;43154;50.966;18.316;2023-05-07T09:43:17;11.00;;;4.40;;
57311;SDS011;43154;50.966;18.316;2023-05-07T09:46:19;12.40;;;4.10;;
57311;SDS011;43154;50.966;18.316;2023-05-07T09:49:29;9.70;;;3.70;;
57311;SDS011;43154;50.966;18.316;2023-05-07T09:52:10;14.50;;;6.30;;
57311;SDS011;43154;50.966;18.316;2023-05-07T09:58:45;10.40;;;4.40;;
57311;SDS011;43154;50.966;18.316;2023-05-07T10:04:48;9.60;;;3.50;;
57311;SDS011;43154;50.966;18.316;2023-05-07T10:10:45;10.20;;;4.50;;
57311;SDS011;43154;50.966;18.316;2023-05-07T10:13:40;11.50;;;4.30;;
57311;SDS011;43154;50.966;18.316;2023-05-07T10:16:43;9.90;;;4.00;;
57311;SDS011;43154;50.966;18.316;2023-05-07T10:19:48;10.80;;;4.50;;
57311;SDS011;43154;50.966;18.316;2023-05-07T10:26:06;10.20;;;4.40;;
57311;SDS011;43154;50.966;18.316;2023-05-07T10:39:54;12.00;;;4.80;;
57311;SDS011;43154;50.966;18.316;2023-05-07T10:42:33;11.00;;;4.70;;
57311;SDS011;43154;50.966;18.316;2023-05-07T10:45:40;10.30;;;4.20;;
57311;SDS011;43154;50.966;18.316;2023-05-07T10:48:30;12.30;;;4.40;;
57311;SDS011;43154;50.966;18.316;2023-05-07T10:54:24;10.50;;;4.40;;
57311;SDS011;43154;50.966;18.316;2023-05-07T10:57:36;12.20;;;4.60;;
57311;SDS011;43154;50.966;18.316;2023-05-07T11:04:44;13.00;;;6.10;;
57311;SDS011;43154;50.966;18.316;2023-05-07T11:07:36;12.50;;;5.60;;
57311;SDS011;43154;50.966;18.316;2023-05-07T11:16:41;12.30;;;5.30;;
57311;SDS011;43154;50.966;18.316;2023-05-07T11:22:38;12.30;;;5.90;;
57311;SDS011;43154;50.966;18.316;2023-05-07T11:25:10;13.90;;;6.40;;
57311;SDS011;43154;50.966;18.316;2023-05-07T11:27:47;12.60;;;5.40;;
57311;SDS011;43154;50.966;18.316;2023-05-07T11:30:38;13.70;;;6.40;;
57311;SDS011;43154;50.966;18.316;2023-05-07T11:33:41;13.40;;;6.10;;
57311;SDS011;43154;50.966;18.316;2023-05-07T11:36:15;12.10;;;5.40;;
57311;SDS011;43154;50.966;18.316;2023-05-07T11:42:34;12.40;;;5.60;;
57311;SDS011;43154;50.966;18.316;2023-05-07T11:45:28;11.40;;;5.00;;
57311;SDS011;43154;50.966;18.316;2023-05-07T11:51:20;12.10;;;5.30;;
57311;SDS011;43154;50.966;18.316;2023-05-07T11:56:57;12.30;;;5.40;;
57311;SDS011;43154;50.966;18.316;2023-05-07T12:00:00;10.10;;;4.40;;
57311;SDS011;43154;50.966;18.316;2023-05-07T12:05:57;13.20;;;6.20;;
57311;SDS011;43154;50.966;18.316;2023-05-07T12:09:20;11.40;;;5.20;;
57311;SDS011;43154;50.966;18.316;2023-05-07T12:12:21;12.60;;;6.10;;
57311;SDS011;43154;50.966;18.316;2023-05-07T12:15:35;12.80;;;6.00;;
57311;SDS011;43154;50.966;18.316;2023-05-07T12:31:50;11.90;;;6.10;;
57311;SDS011;43154;50.966;18.316;2023-05-07T12:38:19;13.90;;;6.30;;
57311;SDS011;43154;50.966;18.316;2023-05-07T12:41:01;11.80;;;5.00;;
57311;SDS011;43154;50.966;18.316;2023-05-07T12:44:10;13.60;;;5.90;;
57311;SDS011;43154;50.966;18.316;2023-05-07T12:49:39;12.00;;;5.10;;
57311;SDS011;43154;50.966;18.316;2023-05-07T12:52:56;12.20;;;5.10;;
57311;SDS011;43154;50.966;18.316;2023-05-07T12:55:23;11.00;;;4.90;;
57311;SDS011;43154;50.966;18.316;2023-05-07T12:58:00;10.50;;;4.70;;
57311;SDS011;43154;50.966;18.316;2023-05-07T13:03:47;9.90;;;4.00;;
57311;SDS011;43154;50.966;18.316;2023-05-07T13:06:18;10.70;;;4.90;;
57311;SDS011;43154;50.966;18.316;2023-05-07T13:08:44;11.30;;;5.40;;
57311;SDS011;43154;50.966;18.316;2023-05-07T13:11:10;12.00;;;4.90;;
57311;SDS011;43154;50.966;18.316;2023-05-07T13:13:37;12.30;;;5.20;;
57311;SDS011;43154;50.966;18.316;2023-05-07T13:22:55;10.90;;;4.90;;
57311;SDS011;43154;50.966;18.316;2023-05-07T13:26:08;13.10;;;6.00;;
57311;SDS011;43154;50.966;18.316;2023-05-07T13:39:35;12.40;;;6.10;;
57311;SDS011;43154;50.966;18.316;2023-05-07T13:42:33;14.00;;;6.40;;
57311;SDS011;43154;50.966;18.316;2023-05-07T13:45:03;13.30;;;6.30;;
57311;SDS011;43154;50.966;18.316;2023-05-07T13:47:47;11.40;;;5.40;;
57311;SDS011;43154;50.966;18.316;2023-05-07T13:50:20;13.80;;;6.10;;
57311;SDS011;43154;50.966;18.316;2023-05-07T13:53:00;12.70;;;6.30;;
57311;SDS011;43154;50.966;18.316;2023-05-07T13:55:52;11.70;;;5.80;;
57311;SDS011;43154;50.966;18.316;2023-05-07T13:58:37;11.70;;;4.70;;
57311;SDS011;43154;50.966;18.316;2023-05-07T14:01:20;12.70;;;5.70;;
57311;SDS011;43154;50.966;18.316;2023-05-07T14:03:52;13.60;;;6.20;;
57311;SDS011;43154;50.966;18.316;2023-05-07T14:06:26;11.60;;;5.70;;
57311;SDS011;43154;50.966;18.316;2023-05-07T14:09:34;11.80;;;5.50;;
57311;SDS011;43154;50.966;18.316;2023-05-07T14:12:15;11.70;;;5.50;;
57311;SDS011;43154;50.966;18.316;2023-05-07T14:15:07;12.30;;;6.10;;
57311;SDS011;43154;50.966;18.316;2023-05-07T14:17:51;11.00;;;5.30;;
57311;SDS011;43154;50.966;18.316;2023-05-07T14:20:33;11.40;;;5.40;;
57311;SDS011;43154;50.966;18.316;2023-05-07T14:23:50;13.40;;;5.70;;
57311;SDS011;43154;50.966;18.316;2023-05-07T14:26:59;12.30;;;6.10;;
57311;SDS011;43154;50.966;18.316;2023-05-07T14:30:07;12.90;;;6.20;;
57311;SDS011;43154;50.966;18.316;2023-05-07T14:32:57;11.60;;;5.10;;
57311;SDS011;43154;50.966;18.316;2023-05-07T14:39:12;13.10;;;6.30;;
57311;SDS011;43154;50.966;18.316;2023-05-07T14:45:10;13.10;;;6.30;;
57311;SDS011;43154;50.966;18.316;2023-05-07T14:48:36;15.30;;;6.20;;
57311;SDS011;43154;50.966;18.316;2023-05-07T15:01:01;12.80;;;6.40;;
57311;SDS011;43154;50.966;18.316;2023-05-07T15:10:48;10.90;;;4.80;;
57311;SDS011;43154;50.966;18.316;2023-05-07T15:17:13;13.60;;;6.60;;
57311;SDS011;43154;50.966;18.316;2023-05-07T15:19:51;13.20;;;6.00;;
57311;SDS011;43154;50.966;18.316;2023-05-07T15:28:11;11.50;;;5.00;;
57311;SDS011;43154;50.966;18.316;2023-05-07T15:31:09;11.90;;;5.80;;
57311;SDS011;43154;50.966;18.316;2023-05-07T15:34:18;12.70;;;6.00;;
57311;SDS011;43154;50.966;18.316;2023-05-07T15:37:12;12.50;;;6.40;;
57311;SDS011;43154;50.966;18.316;2023-05-07T15:40:06;15.30;;;7.60;;
57311;SDS011;43154;50.966;18.316;2023-05-07T15:43:02;12.40;;;6.00;;
57311;SDS011;43154;50.966;18.316;2023-05-07T15:45:48;11.60;;;5.60;;
57311;SDS011;43154;50.966;18.316;2023-05-07T15:48:41;13.70;;;5.80;;
57311;SDS011;43154;50.966;18.316;2023-05-07T15:51:38;12.80;;;5.90;;
57311;SDS011;43154;50.966;18.316;2023-05-07T15:54:31;14.00;;;6.30;;
57311;SDS011;43154;50.966;18.316;2023-05-07T15:57:29;12.50;;;5.40;;
57311;SDS011;43154;50.966;18.316;2023-05-07T16:00:24;10.60;;;4.70;;
57311;SDS011;43154;50.966;18.316;2023-05-07T16:03:23;12.80;;;5.40;;
57311;SDS011;43154;50.966;18.316;2023-05-07T16:09:51;13.20;;;6.10;;
57311;SDS011;43154;50.966;18.316;2023-05-07T16:12:18;12.90;;;5.80;;
57311;SDS011;43154;50.966;18.316;2023-05-07T16:14:43;12.50;;;6.00;;
57311;SDS011;43154;50.966;18.316;2023-05-07T16:17:10;12.70;;;6.00;;
57311;SDS011;43154;50.966;18.316;2023-05-07T16:19:36;13.30;;;5.90;;
57311;SDS011;43154;50.966;18.316;2023-05-07T16:22:01;13.80;;;6.40;;
57311;SDS011;43154;50.966;18.316;2023-05-07T16:24:28;13.40;;;6.30;;
57311;SDS011;43154;50.966;18.316;2023-05-07T16:26:53;12.60;;;5.90;;
57311;SDS011;43154;50.966;18.316;2023-05-07T16:29:20;13.40;;;6.20;;
57311;SDS011;43154;50.966;18.316;2023-05-07T16:31:47;13.10;;;6.00;;
57311;SDS011;43154;50.966;18.316;2023-05-07T16:34:13;15.00;;;7.10;;
57311;SDS011;43154;50.966;18.316;2023-05-07T16:36:39;13.70;;;5.90;;
57311;SDS011;43154;50.966;18.316;2023-05-07T16:39:05;12.70;;;6.30;;
57311;SDS011;43154;50.966;18.316;2023-05-07T16:41:31;12.90;;;6.00;;
57311;SDS011;43154;50.966;18.316;2023-05-07T16:43:57;12.20;;;5.80;;
57311;SDS011;43154;50.966;18.316;2023-05-07T16:46:23;12.80;;;6.30;;
57311;SDS011;43154;50.966;18.316;2023-05-07T16:48:49;14.50;;;6.50;;
57311;SDS011;43154;50.966;18.316;2023-05-07T16:51:15;14.70;;;7.00;;
57311;SDS011;43154;50.966;18.316;2023-05-07T16:53:41;13.30;;;6.20;;
57311;SDS011;43154;50.966;18.316;2023-05-07T16:56:07;14.60;;;6.70;;
57311;SDS011;43154;50.966;18.316;2023-05-07T16:58:33;15.30;;;6.90;;
57311;SDS011;43154;50.966;18.316;2023-05-07T17:00:59;15.90;;;7.40;;
57311;SDS011;43154;50.966;18.316;2023-05-07T17:03:27;13.10;;;6.00;;
57311;SDS011;43154;50.966;18.316;2023-05-07T17:05:53;14.70;;;6.70;;
57311;SDS011;43154;50.966;18.316;2023-05-07T17:08:20;15.80;;;7.40;;
57311;SDS011;43154;50.966;18.316;2023-05-07T17:10:49;13.50;;;6.50;;
57311;SDS011;43154;50.966;18.316;2023-05-07T17:13:15;14.90;;;7.30;;
57311;SDS011;43154;50.966;18.316;2023-05-07T17:15:40;15.60;;;7.20;;
57311;SDS011;43154;50.966;18.316;2023-05-07T17:18:07;15.10;;;7.30;;
57311;SDS011;43154;50.966;18.316;2023-05-07T17:20:33;14.90;;;7.50;;
57311;SDS011;43154;50.966;18.316;2023-05-07T17:22:59;15.80;;;7.90;;
57311;SDS011;43154;50.966;18.316;2023-05-07T17:25:25;13.90;;;6.90;;
57311;SDS011;43154;50.966;18.316;2023-05-07T17:27:50;13.70;;;7.00;;
57311;SDS011;43154;50.966;18.316;2023-05-07T17:30:16;14.70;;;7.90;;
57311;SDS011;43154;50.966;18.316;2023-05-07T17:32:42;14.20;;;6.50;;
57311;SDS011;43154;50.966;18.316;2023-05-07T17:35:08;13.70;;;6.60;;
57311;SDS011;43154;50.966;18.316;2023-05-07T17:37:34;12.70;;;5.80;;
57311;SDS011;43154;50.966;18.316;2023-05-07T17:40:00;14.50;;;6.40;;
57311;SDS011;43154;50.966;18.316;2023-05-07T17:42:28;13.90;;;6.40;;
57311;SDS011;43154;50.966;18.316;2023-05-07T17:44:53;13.80;;;6.80;;
57311;SDS011;43154;50.966;18.316;2023-05-07T17:47:20;14.70;;;6.70;;
57311;SDS011;43154;50.966;18.316;2023-05-07T17:49:46;13.70;;;6.80;;
57311;SDS011;43154;50.966;18.316;2023-05-07T17:52:14;15.00;;;6.80;;
57311;SDS011;43154;50.966;18.316;2023-05-07T17:54:40;14.20;;;6.50;;
57311;SDS011;43154;50.966;18.316;2023-05-07T17:57:06;14.50;;;6.60;;
57311;SDS011;43154;50.966;18.316;2023-05-07T17:59:32;13.70;;;6.10;;
57311;SDS011;43154;50.966;18.316;2023-05-07T18:01:58;12.90;;;6.60;;
57311;SDS011;43154;50.966;18.316;2023-05-07T18:04:24;14.50;;;7.40;;
57311;SDS011;43154;50.966;18.316;2023-05-07T18:06:52;16.40;;;8.60;;
57311;SDS011;43154;50.966;18.316;2023-05-07T18:09:18;15.60;;;7.50;;
57311;SDS011;43154;50.966;18.316;2023-05-07T18:11:43;18.50;;;8.90;;
57311;SDS011;43154;50.966;18.316;2023-05-07T18:14:09;15.60;;;7.80;;
57311;SDS011;43154;50.966;18.316;2023-05-07T18:16:35;16.30;;;8.10;;
57311;SDS011;43154;50.966;18.316;2023-05-07T18:19:01;18.40;;;8.40;;
57311;SDS011;43154;50.966;18.316;2023-05-07T18:21:27;17.10;;;8.20;;
57311;SDS011;43154;50.966;18.316;2023-05-07T18:23:52;16.80;;;8.10;;
57311;SDS011;43154;50.966;18.316;2023-05-07T18:26:19;17.60;;;8.40;;
57311;SDS011;43154;50.966;18.316;2023-05-07T18:28:45;19.80;;;8.50;;
57311;SDS011;43154;50.966;18.316;2023-05-07T18:31:11;17.30;;;8.80;;
57311;SDS011;43154;50.966;18.316;2023-05-07T18:33:39;16.90;;;8.80;;
57311;SDS011;43154;50.966;18.316;2023-05-07T18:36:05;18.80;;;8.30;;
57311;SDS011;43154;50.966;18.316;2023-05-07T18:38:31;16.70;;;8.80;;
57311;SDS011;43154;50.966;18.316;2023-05-07T18:41:02;16.70;;;7.80;;
57311;SDS011;43154;50.966;18.316;2023-05-07T18:43:30;17.90;;;7.80;;
57311;SDS011;43154;50.966;18.316;2023-05-07T18:45:56;13.30;;;5.90;;
57311;SDS011;43154;50.966;18.316;2023-05-07T18:48:21;15.40;;;7.20;;
57311;SDS011;43154;50.966;18.316;2023-05-07T18:50:47;13.00;;;5.40;;